createdAt,value
2018-09-11T00:01:38.033Z,16.70
2018-09-11T00:05:46.350Z,16.60
2018-09-11T00:09:54.674Z,16.50
2018-09-11T00:14:03.000Z,16.50
2018-09-11T00:22:19.325Z,16.30
2018-09-11T00:26:27.642Z,16.40
2018-09-11T00:30:35.992Z,16.30
2018-09-11T00:34:44.295Z,16.30
2018-09-11T00:38:52.597Z,16.20
2018-09-11T00:43:00.908Z,16.20
2018-09-11T00:47:09.538Z,16.10
2018-09-11T00:51:17.846Z,16.10
2018-09-11T00:55:26.162Z,16.10
2018-09-11T00:59:34.481Z,16.10
2018-09-11T01:03:42.829Z,16.20
2018-09-11T01:07:51.147Z,16.20
2018-09-11T01:11:59.449Z,16.20
2018-09-11T01:16:08.907Z,16.10
2018-09-11T01:20:17.222Z,16.20
2018-09-11T01:24:25.510Z,16.20
2018-09-11T01:28:33.805Z,16.20
2018-09-11T01:32:42.154Z,16.20
2018-09-11T01:36:50.518Z,16.10
2018-09-11T01:40:58.788Z,16.00
2018-09-11T01:45:07.411Z,15.90
2018-09-11T01:49:15.788Z,16.10
2018-09-11T01:53:24.125Z,16.00
2018-09-11T01:57:32.399Z,15.90
2018-09-11T02:01:40.772Z,15.90
2018-09-11T02:05:49.069Z,15.90
2018-09-11T02:09:57.408Z,16.10
2018-09-11T02:14:05.741Z,16.00
2018-09-11T02:18:14.088Z,16.00
2018-09-11T02:22:22.406Z,15.90
2018-09-11T02:26:30.730Z,15.80
2018-09-11T02:30:39.001Z,16.00
2018-09-11T02:34:47.391Z,15.80
2018-09-11T02:38:55.675Z,15.80
2018-09-11T02:43:04.010Z,15.70
2018-09-11T02:47:12.348Z,15.70
2018-09-11T02:51:20.776Z,15.80
2018-09-11T02:55:29.090Z,15.70
2018-09-11T02:59:37.405Z,15.70
2018-09-11T03:03:45.715Z,15.80
2018-09-11T03:07:54.030Z,15.70
2018-09-11T03:12:02.326Z,15.70
2018-09-11T03:16:10.648Z,15.70
2018-09-11T03:20:19.033Z,15.80
2018-09-11T03:24:27.337Z,15.90
2018-09-11T03:28:35.737Z,15.90
2018-09-11T03:32:44.129Z,16.00
2018-09-11T03:36:52.440Z,16.10
2018-09-11T03:41:00.754Z,16.10
2018-09-11T03:45:09.049Z,16.20
2018-09-11T03:49:17.342Z,16.30
2018-09-11T03:57:33.677Z,16.40
2018-09-11T04:01:41.977Z,16.30
2018-09-11T04:05:50.283Z,16.40
2018-09-11T04:09:58.602Z,16.40
2018-09-11T04:14:06.887Z,16.40
2018-09-11T04:18:15.170Z,16.40
2018-09-11T04:22:23.469Z,16.50
2018-09-11T04:26:31.804Z,16.50
2018-09-11T04:34:48.181Z,16.40
2018-09-11T04:38:56.502Z,16.40
2018-09-11T04:43:04.886Z,16.50
2018-09-11T04:47:13.131Z,16.50
2018-09-11T04:51:21.425Z,16.50
2018-09-11T04:55:29.731Z,16.40
2018-09-11T04:59:38.044Z,16.40
2018-09-11T05:03:46.305Z,16.50
2018-09-11T05:07:54.657Z,16.50
2018-09-11T05:12:02.978Z,16.60
2018-09-11T05:16:11.280Z,16.40
2018-09-11T05:20:19.590Z,16.40
2018-09-11T05:24:27.919Z,16.50
2018-09-11T05:28:36.239Z,16.60
2018-09-11T05:32:44.568Z,16.60
2018-09-11T05:36:52.838Z,16.70
2018-09-11T05:41:01.206Z,16.60
2018-09-11T05:45:09.501Z,16.70
2018-09-11T05:49:17.800Z,16.60
2018-09-11T05:53:26.061Z,16.70
2018-09-11T05:57:34.366Z,16.70
2018-09-11T06:01:42.696Z,16.70
2018-09-11T06:05:51.016Z,16.70
2018-09-11T06:09:59.328Z,16.70
2018-09-11T06:14:07.639Z,16.60
2018-09-11T06:18:15.950Z,16.70
2018-09-11T06:22:24.372Z,16.60
2018-09-11T06:26:32.685Z,16.50
2018-09-11T06:30:41.036Z,16.70
2018-09-11T06:34:49.348Z,16.70
2018-09-11T06:38:57.644Z,16.70
2018-09-11T06:43:05.997Z,16.80
2018-09-11T06:47:14.297Z,16.80
2018-09-11T06:51:22.588Z,16.80
2018-09-11T06:55:30.874Z,16.80
2018-09-11T06:59:39.174Z,16.90
2018-09-11T07:03:47.476Z,16.90
2018-09-11T07:07:55.741Z,17.00
2018-09-11T07:12:04.022Z,17.10
2018-09-11T07:16:12.270Z,17.20
2018-09-11T07:20:20.775Z,17.40
2018-09-11T07:24:28.897Z,17.40
2018-09-11T07:28:37.184Z,17.50
2018-09-11T07:32:45.479Z,17.50
2018-09-11T07:36:53.773Z,17.70
2018-09-11T07:41:02.056Z,17.80
2018-09-11T07:45:10.339Z,17.90
2018-09-11T07:49:18.601Z,18.00
2018-09-11T07:53:26.893Z,18.10
2018-09-11T07:57:35.225Z,18.20
2018-09-11T08:01:43.460Z,18.30
2018-09-11T08:05:51.758Z,18.30
2018-09-11T08:10:00.118Z,18.50
2018-09-11T08:14:08.962Z,18.60
2018-09-11T08:18:17.293Z,18.80
2018-09-11T08:22:25.594Z,18.80
2018-09-11T08:26:33.885Z,19.00
2018-09-11T08:30:42.259Z,19.10
2018-09-11T08:34:50.569Z,19.10
2018-09-11T08:38:58.905Z,19.20
2018-09-11T08:47:15.229Z,19.50
2018-09-11T08:51:23.539Z,19.70
2018-09-11T08:55:32.035Z,19.70
2018-09-11T08:59:40.310Z,19.80
2018-09-11T09:03:48.690Z,19.90
2018-09-11T09:07:56.961Z,20.10
2018-09-11T09:12:05.270Z,20.30
2018-09-11T09:16:13.630Z,20.50
2018-09-11T09:20:23.076Z,20.80
2018-09-11T09:24:31.384Z,20.90
2018-09-11T09:28:39.677Z,20.80
2018-09-11T09:32:50.137Z,20.80
2018-09-11T09:36:58.533Z,21.00
2018-09-11T09:41:06.743Z,21.00
2018-09-11T09:45:15.031Z,21.20
2018-09-11T09:49:23.369Z,21.40
2018-09-11T09:53:31.678Z,21.40
2018-09-11T09:57:40.016Z,21.60
2018-09-11T10:01:53.606Z,21.90
2018-09-11T10:06:02.138Z,22.10
2018-09-11T10:10:14.687Z,22.20
2018-09-11T10:14:22.986Z,22.30
2018-09-11T10:18:31.922Z,22.40
2018-09-11T10:22:40.257Z,22.30
2018-09-11T10:26:48.572Z,22.40
2018-09-11T10:30:56.927Z,22.60
2018-09-11T10:35:05.293Z,22.70
2018-09-11T10:39:13.560Z,23.00
2018-09-11T10:43:21.913Z,23.00
2018-09-11T10:47:30.257Z,23.10
2018-09-11T10:51:38.877Z,23.30
2018-09-11T10:55:47.142Z,23.20
2018-09-11T10:59:55.510Z,23.30
2018-09-11T11:04:03.778Z,23.50
2018-09-11T11:08:12.065Z,23.70
2018-09-11T11:12:20.475Z,23.70
2018-09-11T11:16:28.833Z,23.70
2018-09-11T11:20:37.191Z,23.80
2018-09-11T11:24:45.580Z,24.00
2018-09-11T11:28:53.900Z,24.10
2018-09-11T11:33:02.218Z,24.40
2018-09-11T11:37:10.624Z,24.40
2018-09-11T11:41:19.489Z,24.40
2018-09-11T11:45:27.738Z,24.40
2018-09-11T11:49:36.146Z,24.40
2018-09-11T11:53:44.469Z,24.50
2018-09-11T11:57:52.718Z,24.60
2018-09-11T12:02:01.068Z,24.60
2018-09-11T12:06:09.341Z,24.70
2018-09-11T12:10:17.765Z,24.80
2018-09-11T12:14:26.023Z,24.80
2018-09-11T12:18:34.344Z,25.10
2018-09-11T12:22:42.622Z,25.20
2018-09-11T12:26:50.923Z,25.10
2018-09-11T12:30:59.239Z,25.10
2018-09-11T12:35:07.520Z,25.10
2018-09-11T12:39:15.845Z,25.30
2018-09-11T12:43:24.135Z,25.50
2018-09-11T12:47:32.743Z,25.60
2018-09-11T12:51:40.796Z,25.60
2018-09-11T12:55:49.072Z,25.60
2018-09-11T12:59:57.377Z,25.60
2018-09-11T13:04:05.701Z,25.70
2018-09-11T13:08:14.002Z,25.70
2018-09-11T13:12:22.308Z,25.80
2018-09-11T13:16:30.590Z,25.80
2018-09-11T13:20:38.898Z,25.90
2018-09-11T13:24:47.213Z,25.90
2018-09-11T13:28:55.474Z,25.90
2018-09-11T13:33:03.764Z,26.00
2018-09-11T13:37:12.059Z,26.00
2018-09-11T13:41:20.363Z,26.00
2018-09-11T13:45:28.752Z,26.00
2018-09-11T13:49:37.030Z,26.20
2018-09-11T13:53:45.365Z,26.20
2018-09-11T13:57:53.669Z,26.10
2018-09-11T14:02:02.006Z,26.10
2018-09-11T14:06:10.298Z,26.30
2018-09-11T14:10:18.569Z,26.30
2018-09-11T14:14:26.938Z,26.40
2018-09-11T14:18:35.210Z,26.50
2018-09-11T14:22:43.522Z,26.50
2018-09-11T14:26:51.841Z,26.40
2018-09-11T14:31:00.121Z,26.50
2018-09-11T14:35:08.393Z,26.40
2018-09-11T14:39:16.684Z,26.40
2018-09-11T14:43:25.002Z,26.40
2018-09-11T14:47:38.657Z,26.40
2018-09-11T14:51:47.133Z,26.60
2018-09-11T14:55:55.433Z,26.70
2018-09-11T15:00:04.252Z,26.60
2018-09-11T15:04:12.543Z,26.60
2018-09-11T15:08:20.769Z,26.60
2018-09-11T15:12:29.076Z,26.70
2018-09-11T15:16:37.384Z,26.60
2018-09-11T15:20:45.690Z,26.50
2018-09-11T15:24:53.983Z,26.40
2018-09-11T15:29:02.386Z,26.50
2018-09-11T15:33:10.645Z,26.40
2018-09-11T15:37:18.937Z,26.40
2018-09-11T15:41:27.217Z,26.40
2018-09-11T15:45:35.501Z,26.40
2018-09-11T15:49:43.829Z,26.40
2018-09-11T15:53:52.127Z,26.30
2018-09-11T15:58:00.437Z,26.20
2018-09-11T16:02:08.736Z,26.20
2018-09-11T16:06:17.047Z,26.10
2018-09-11T16:10:25.309Z,26.10
2018-09-11T16:14:33.602Z,26.00
2018-09-11T16:18:41.875Z,25.90
2018-09-11T16:22:50.156Z,25.90
2018-09-11T16:26:58.497Z,25.80
2018-09-11T16:31:06.797Z,25.90
2018-09-11T16:35:15.117Z,26.00
2018-09-11T16:39:23.421Z,26.00
2018-09-11T16:43:31.798Z,25.80
2018-09-11T16:47:40.114Z,25.80
2018-09-11T16:51:48.409Z,25.70
2018-09-11T16:55:56.722Z,25.70
2018-09-11T17:00:05.039Z,25.60
2018-09-11T17:04:13.371Z,25.50
2018-09-11T17:12:29.955Z,25.40
2018-09-11T17:16:38.255Z,25.20
2018-09-11T17:20:46.540Z,25.20
2018-09-11T17:24:54.825Z,25.10
2018-09-11T17:33:11.633Z,24.90
2018-09-11T17:37:19.930Z,24.80
2018-09-11T17:41:28.217Z,24.70
2018-09-11T17:45:36.486Z,24.50
2018-09-11T17:49:44.765Z,24.50
2018-09-11T17:53:53.079Z,24.40
2018-09-11T17:58:01.442Z,24.40
2018-09-11T18:02:09.762Z,24.20
2018-09-11T18:06:18.064Z,24.10
2018-09-11T18:10:26.390Z,24.00
2018-09-11T18:14:34.689Z,23.80
2018-09-11T18:18:42.954Z,23.70
2018-09-11T18:22:51.261Z,23.60
2018-09-11T18:26:59.626Z,23.50
2018-09-11T18:31:07.965Z,23.40
2018-09-11T18:35:16.263Z,23.20
2018-09-11T18:39:24.533Z,23.10
2018-09-11T18:43:32.863Z,23.00
2018-09-11T18:47:41.194Z,22.80
2018-09-11T18:51:49.547Z,22.70
2018-09-11T18:55:57.830Z,22.60
2018-09-11T19:00:06.322Z,22.50
2018-09-11T19:04:14.616Z,22.30
2018-09-11T19:08:22.921Z,22.20
2018-09-11T19:12:31.209Z,22.10
2018-09-11T19:16:39.930Z,21.90
2018-09-11T19:20:48.253Z,21.80
2018-09-11T19:24:56.558Z,21.70
2018-09-11T19:29:04.882Z,21.70
2018-09-11T19:33:13.167Z,21.60
2018-09-11T19:37:32.215Z,21.50
2018-09-11T19:41:41.718Z,21.50
2018-09-11T19:45:49.997Z,21.40
2018-09-11T19:49:58.382Z,21.40
2018-09-11T19:54:06.722Z,21.40
2018-09-11T19:58:16.115Z,21.30
2018-09-11T20:02:24.430Z,21.10
2018-09-11T20:06:32.791Z,21.00
2018-09-11T20:10:41.067Z,20.90
2018-09-11T20:14:49.367Z,20.80
2018-09-11T20:18:57.676Z,20.70
2018-09-11T20:23:06.009Z,20.70
2018-09-11T20:27:14.298Z,20.70
2018-09-11T20:31:22.574Z,20.70
2018-09-11T20:35:31.129Z,20.60
2018-09-11T20:39:39.757Z,20.60
2018-09-11T20:43:48.079Z,20.50
2018-09-11T20:47:56.395Z,20.50
2018-09-11T20:52:04.721Z,20.40
2018-09-11T20:56:13.180Z,20.30
2018-09-11T21:00:21.463Z,20.30
2018-09-11T21:08:37.821Z,20.30
2018-09-11T21:12:46.112Z,20.30
2018-09-11T21:16:54.408Z,20.20
2018-09-11T21:21:02.710Z,20.30
2018-09-11T21:25:11.077Z,20.30
2018-09-11T21:29:19.409Z,20.30
2018-09-11T21:33:27.709Z,20.30
2018-09-11T21:37:35.996Z,20.40
2018-09-11T21:41:44.298Z,20.40
2018-09-11T21:45:52.616Z,20.40
2018-09-11T21:50:02.022Z,20.40
2018-09-11T21:54:10.345Z,20.40
2018-09-11T21:58:18.660Z,20.40
2018-09-11T22:02:26.944Z,20.40
2018-09-11T22:06:35.248Z,20.50
2018-09-11T22:10:43.568Z,20.40
2018-09-11T22:14:51.845Z,20.30
2018-09-11T22:19:00.166Z,20.30
2018-09-11T22:23:08.417Z,20.40
2018-09-11T22:27:16.789Z,20.30
2018-09-11T22:31:25.101Z,20.20
2018-09-11T22:35:34.165Z,20.20
2018-09-11T22:39:42.482Z,20.20
2018-09-11T22:43:51.180Z,20.10
2018-09-11T22:47:59.581Z,20.00
2018-09-11T22:52:07.912Z,20.00
2018-09-11T22:56:16.223Z,20.00
2018-09-11T23:00:24.584Z,19.90
2018-09-11T23:04:33.199Z,19.90
2018-09-11T23:08:41.510Z,19.80
2018-09-11T23:12:49.838Z,19.70
2018-09-11T23:16:58.158Z,19.80
2018-09-11T23:21:06.625Z,19.90
2018-09-11T23:25:14.910Z,19.70
2018-09-11T23:29:25.335Z,19.60
2018-09-11T23:33:33.652Z,19.60
2018-09-11T23:37:41.926Z,19.50
2018-09-11T23:41:50.237Z,19.40
2018-09-11T23:45:58.543Z,19.40
2018-09-11T23:50:07.380Z,19.40
2018-09-11T23:54:15.696Z,19.50
2018-09-11T23:58:23.998Z,19.50
